sensor_id;sensor_type;location;lat;lon;timestamp;pressure;altitude;pressure_sealevel;temperature;humidity
23733;BME280;12047;53.450;-2.286;2023-04-05T00:04:43;101877.91;;;15.37;82.56
23733;BME280;12047;53.450;-2.286;2023-04-05T00:10:33;101885.78;;;15.28;84.03
23733;BME280;12047;53.450;-2.286;2023-04-05T00:16:10;101875.91;;;15.10;84.65
23733;BME280;12047;53.450;-2.286;2023-04-05T00:27:04;101867.53;;;14.55;85.62
23733;BME280;12047;53.450;-2.286;2023-04-05T00:38:06;101855.78;;;14.37;86.57
23733;BME280;12047;53.450;-2.286;2023-04-05T00:43:13;101851.53;;;14.55;86.49
23733;BME280;12047;53.450;-2.286;2023-04-05T00:48:17;101841.44;;;14.28;87.37
23733;BME280;12047;53.450;-2.286;2023-04-05T00:53:20;101833.06;;;14.02;88.96
23733;BME280;12047;53.450;-2.286;2023-04-05T01:04:24;101841.38;;;13.88;93.77
23733;BME280;12047;53.450;-2.286;2023-04-05T01:09:32;101828.66;;;14.22;94.09
23733;BME280;12047;53.450;-2.286;2023-04-05T01:14:41;101824.53;;;14.08;96.31
23733;BME280;12047;53.450;-2.286;2023-04-05T01:30:43;101808.94;;;14.34;98.33
23733;BME280;12047;53.450;-2.286;2023-04-05T01:35:53;101807.47;;;14.20;99.09
23733;BME280;12047;53.450;-2.286;2023-04-05T01:40:55;101808.94;;;14.34;100.00
23733;BME280;12047;53.450;-2.286;2023-04-05T01:45:55;101799.78;;;13.66;100.00
23733;BME280;12047;53.450;-2.286;2023-04-05T01:50:56;101799.72;;;14.17;100.00
23733;BME280;12047;53.450;-2.286;2023-04-05T01:56:00;101796.06;;;14.49;100.00
23733;BME280;12047;53.450;-2.286;2023-04-05T02:01:01;101786.00;;;14.22;100.00
23733;BME280;12047;53.450;-2.286;2023-04-05T02:06:01;101787.31;;;13.97;100.00
23733;BME280;12047;53.450;-2.286;2023-04-05T02:11:02;101778.75;;;13.93;100.00
23733;BME280;12047;53.450;-2.286;2023-04-05T02:16:02;101776.56;;;14.08;100.00
23733;BME280;12047;53.450;-2.286;2023-04-05T02:21:05;101773.06;;;14.08;100.00
23733;BME280;12047;53.450;-2.286;2023-04-05T02:26:05;101773.63;;;14.61;100.00
23733;BME280;12047;53.450;-2.286;2023-04-05T02:31:10;101754.41;;;14.08;100.00
23733;BME280;12047;53.450;-2.286;2023-04-05T02:36:13;101760.59;;;14.18;100.00
23733;BME280;12047;53.450;-2.286;2023-04-05T02:41:14;101760.94;;;14.34;100.00
23733;BME280;12047;53.450;-2.286;2023-04-05T02:46:14;101750.50;;;14.21;100.00
23733;BME280;12047;53.450;-2.286;2023-04-05T02:51:15;101751.72;;;14.48;100.00
23733;BME280;12047;53.450;-2.286;2023-04-05T02:56:16;101746.75;;;14.34;100.00
23733;BME280;12047;53.450;-2.286;2023-04-05T03:01:16;101735.03;;;14.15;100.00
23733;BME280;12047;53.450;-2.286;2023-04-05T03:06:17;101735.75;;;14.17;100.00
23733;BME280;12047;53.450;-2.286;2023-04-05T03:11:17;101727.31;;;13.72;100.00
23733;BME280;12047;53.450;-2.286;2023-04-05T03:16:18;101729.06;;;13.83;100.00
23733;BME280;12047;53.450;-2.286;2023-04-05T03:21:19;101722.72;;;13.74;100.00
23733;BME280;12047;53.450;-2.286;2023-04-05T03:26:20;101721.31;;;14.20;100.00
23733;BME280;12047;53.450;-2.286;2023-04-05T03:31:21;101714.78;;;13.93;100.00
23733;BME280;12047;53.450;-2.286;2023-04-05T03:36:21;101711.97;;;14.35;100.00
23733;BME280;12047;53.450;-2.286;2023-04-05T03:41:22;101699.59;;;14.24;100.00
23733;BME280;12047;53.450;-2.286;2023-04-05T03:46:25;101704.56;;;13.99;100.00
23733;BME280;12047;53.450;-2.286;2023-04-05T03:51:28;101696.63;;;14.08;100.00
23733;BME280;12047;53.450;-2.286;2023-04-05T04:02:26;101699.16;;;14.10;100.00
23733;BME280;12047;53.450;-2.286;2023-04-05T04:07:27;101699.25;;;14.58;100.00
23733;BME280;12047;53.450;-2.286;2023-04-05T04:12:27;101702.88;;;14.47;100.00
23733;BME280;12047;53.450;-2.286;2023-04-05T04:17:32;101690.91;;;14.32;100.00
23733;BME280;12047;53.450;-2.286;2023-04-05T04:22:33;101688.13;;;14.53;100.00
23733;BME280;12047;53.450;-2.286;2023-04-05T04:27:43;101690.47;;;14.27;100.00
23733;BME280;12047;53.450;-2.286;2023-04-05T04:32:47;101685.81;;;14.19;100.00
23733;BME280;12047;53.450;-2.286;2023-04-05T04:37:59;101680.75;;;14.16;100.00
23733;BME280;12047;53.450;-2.286;2023-04-05T04:43:08;101678.69;;;14.29;100.00
23733;BME280;12047;53.450;-2.286;2023-04-05T04:48:14;101681.81;;;14.54;100.00
23733;BME280;12047;53.450;-2.286;2023-04-05T04:53:18;101673.75;;;14.25;100.00
23733;BME280;12047;53.450;-2.286;2023-04-05T04:58:18;101663.78;;;14.08;100.00
23733;BME280;12047;53.450;-2.286;2023-04-05T05:03:19;101670.09;;;14.36;100.00
23733;BME280;12047;53.450;-2.286;2023-04-05T05:08:21;101663.06;;;14.15;100.00
23733;BME280;12047;53.450;-2.286;2023-04-05T05:13:46;101658.31;;;14.09;100.00
23733;BME280;12047;53.450;-2.286;2023-04-05T05:18:46;101648.91;;;14.05;100.00
23733;BME280;12047;53.450;-2.286;2023-04-05T05:23:54;101644.28;;;14.17;100.00
23733;BME280;12047;53.450;-2.286;2023-04-05T05:29:03;101649.81;;;14.44;100.00
23733;BME280;12047;53.450;-2.286;2023-04-05T05:34:06;101642.25;;;14.59;100.00
23733;BME280;12047;53.450;-2.286;2023-04-05T05:39:07;101641.66;;;14.46;100.00
23733;BME280;12047;53.450;-2.286;2023-04-05T05:44:08;101639.72;;;14.57;100.00
23733;BME280;12047;53.450;-2.286;2023-04-05T05:49:08;101639.25;;;14.62;100.00
23733;BME280;12047;53.450;-2.286;2023-04-05T05:54:09;101636.72;;;14.22;100.00
23733;BME280;12047;53.450;-2.286;2023-04-05T05:59:10;101629.03;;;14.67;100.00
23733;BME280;12047;53.450;-2.286;2023-04-05T06:04:12;101634.03;;;14.12;100.00
23733;BME280;12047;53.450;-2.286;2023-04-05T06:09:53;101634.66;;;14.54;100.00
23733;BME280;12047;53.450;-2.286;2023-04-05T06:14:54;101629.38;;;13.95;100.00
23733;BME280;12047;53.450;-2.286;2023-04-05T06:19:57;101625.38;;;14.49;100.00
23733;BME280;12047;53.450;-2.286;2023-04-05T06:25:00;101620.41;;;13.96;100.00
23733;BME280;12047;53.450;-2.286;2023-04-05T06:30:02;101611.34;;;14.27;100.00
23733;BME280;12047;53.450;-2.286;2023-04-05T06:35:02;101607.97;;;14.25;100.00
23733;BME280;12047;53.450;-2.286;2023-04-05T06:40:03;101609.91;;;13.94;100.00
23733;BME280;12047;53.450;-2.286;2023-04-05T06:45:05;101607.81;;;14.17;100.00
23733;BME280;12047;53.450;-2.286;2023-04-05T06:50:07;101617.38;;;14.29;100.00
23733;BME280;12047;53.450;-2.286;2023-04-05T06:55:08;101611.75;;;14.71;100.00
23733;BME280;12047;53.450;-2.286;2023-04-05T07:00:14;101612.88;;;14.30;100.00
23733;BME280;12047;53.450;-2.286;2023-04-05T07:05:35;101604.59;;;14.23;100.00
23733;BME280;12047;53.450;-2.286;2023-04-05T07:10:38;101609.94;;;14.52;100.00
23733;BME280;12047;53.450;-2.286;2023-04-05T07:15:40;101613.00;;;14.38;100.00
23733;BME280;12047;53.450;-2.286;2023-04-05T07:20:40;101611.63;;;14.53;100.00
23733;BME280;12047;53.450;-2.286;2023-04-05T07:25:41;101606.44;;;14.33;100.00
23733;BME280;12047;53.450;-2.286;2023-04-05T07:36:39;101599.41;;;14.32;100.00
23733;BME280;12047;53.450;-2.286;2023-04-05T07:41:45;101595.00;;;14.88;100.00
23733;BME280;12047;53.450;-2.286;2023-04-05T07:46:46;101587.53;;;14.92;100.00
23733;BME280;12047;53.450;-2.286;2023-04-05T07:51:57;101590.63;;;14.97;100.00
23733;BME280;12047;53.450;-2.286;2023-04-05T07:57:01;101589.00;;;14.38;100.00
23733;BME280;12047;53.450;-2.286;2023-04-05T08:08:25;101589.59;;;14.42;100.00
23733;BME280;12047;53.450;-2.286;2023-04-05T08:13:52;101587.78;;;14.52;100.00
23733;BME280;12047;53.450;-2.286;2023-04-05T08:19:00;101579.91;;;14.50;100.00
23733;BME280;12047;53.450;-2.286;2023-04-05T08:24:01;101582.41;;;14.61;100.00
23733;BME280;12047;53.450;-2.286;2023-04-05T08:29:02;101578.34;;;14.67;100.00
23733;BME280;12047;53.450;-2.286;2023-04-05T08:34:03;101575.47;;;14.88;100.00
23733;BME280;12047;53.450;-2.286;2023-04-05T08:39:07;101567.72;;;14.94;100.00
23733;BME280;12047;53.450;-2.286;2023-04-05T08:44:11;101573.50;;;14.90;100.00
23733;BME280;12047;53.450;-2.286;2023-04-05T08:49:16;101575.00;;;14.55;100.00
23733;BME280;12047;53.450;-2.286;2023-04-05T08:54:25;101574.13;;;14.74;100.00
23733;BME280;12047;53.450;-2.286;2023-04-05T09:28:57;101556.81;;;15.25;100.00
23733;BME280;12047;53.450;-2.286;2023-04-05T09:34:01;101554.69;;;15.28;100.00
23733;BME280;12047;53.450;-2.286;2023-04-05T09:45:10;101546.84;;;15.72;100.00
23733;BME280;12047;53.450;-2.286;2023-04-05T09:50:18;101538.84;;;15.45;100.00
23733;BME280;12047;53.450;-2.286;2023-04-05T09:55:29;101526.47;;;15.44;100.00
23733;BME280;12047;53.450;-2.286;2023-04-05T10:00:30;101531.88;;;15.61;100.00
23733;BME280;12047;53.450;-2.286;2023-04-05T10:05:31;101535.00;;;16.10;100.00
23733;BME280;12047;53.450;-2.286;2023-04-05T10:10:46;101526.75;;;16.21;100.00
23733;BME280;12047;53.450;-2.286;2023-04-05T10:15:57;101527.69;;;16.30;100.00
23733;BME280;12047;53.450;-2.286;2023-04-05T10:21:03;101524.78;;;16.23;100.00
23733;BME280;12047;53.450;-2.286;2023-04-05T10:26:17;101520.06;;;15.99;100.00
23733;BME280;12047;53.450;-2.286;2023-04-05T10:31:48;101523.72;;;16.16;100.00
23733;BME280;12047;53.450;-2.286;2023-04-05T10:36:57;101529.69;;;15.92;100.00
23733;BME280;12047;53.450;-2.286;2023-04-05T10:42:05;101526.84;;;16.12;100.00
23733;BME280;12047;53.450;-2.286;2023-04-05T10:47:09;101522.88;;;15.98;100.00
23733;BME280;12047;53.450;-2.286;2023-04-05T10:52:13;101515.78;;;16.07;100.00
23733;BME280;12047;53.450;-2.286;2023-04-05T10:57:18;101512.78;;;16.27;100.00
23733;BME280;12047;53.450;-2.286;2023-04-05T11:02:23;101510.03;;;16.19;100.00
23733;BME280;12047;53.450;-2.286;2023-04-05T11:07:24;101511.69;;;15.49;100.00
23733;BME280;12047;53.450;-2.286;2023-04-05T11:18:09;101501.09;;;16.54;100.00
23733;BME280;12047;53.450;-2.286;2023-04-05T11:23:14;101502.44;;;16.76;100.00
23733;BME280;12047;53.450;-2.286;2023-04-05T11:28:47;101504.56;;;15.85;100.00
23733;BME280;12047;53.450;-2.286;2023-04-05T11:34:03;101505.25;;;15.42;100.00
23733;BME280;12047;53.450;-2.286;2023-04-05T11:44:23;101481.91;;;16.15;100.00
23733;BME280;12047;53.450;-2.286;2023-04-05T11:49:24;101482.72;;;15.72;100.00
23733;BME280;12047;53.450;-2.286;2023-04-05T11:59:34;101468.81;;;16.04;100.00
23733;BME280;12047;53.450;-2.286;2023-04-05T12:04:35;101470.50;;;15.87;100.00
23733;BME280;12047;53.450;-2.286;2023-04-05T12:10:05;101467.28;;;16.02;100.00
23733;BME280;12047;53.450;-2.286;2023-04-05T12:15:15;101460.41;;;17.11;100.00
23733;BME280;12047;53.450;-2.286;2023-04-05T12:20:21;101460.91;;;17.06;100.00
23733;BME280;12047;53.450;-2.286;2023-04-05T12:25:24;101455.16;;;16.33;100.00
23733;BME280;12047;53.450;-2.286;2023-04-05T12:30:26;101453.53;;;15.96;100.00
23733;BME280;12047;53.450;-2.286;2023-04-05T12:35:28;101446.44;;;16.05;100.00
23733;BME280;12047;53.450;-2.286;2023-04-05T12:40:34;101457.09;;;16.49;100.00
23733;BME280;12047;53.450;-2.286;2023-04-05T12:45:35;101455.25;;;16.23;100.00
23733;BME280;12047;53.450;-2.286;2023-04-05T12:50:43;101451.13;;;16.29;100.00
23733;BME280;12047;53.450;-2.286;2023-04-05T12:55:51;101442.88;;;16.22;100.00
23733;BME280;12047;53.450;-2.286;2023-04-05T13:00:52;101442.03;;;16.22;100.00
23733;BME280;12047;53.450;-2.286;2023-04-05T13:05:52;101436.59;;;16.57;100.00
23733;BME280;12047;53.450;-2.286;2023-04-05T13:10:53;101434.00;;;16.48;100.00
23733;BME280;12047;53.450;-2.286;2023-04-05T13:15:54;101430.50;;;16.21;100.00
23733;BME280;12047;53.450;-2.286;2023-04-05T13:20:54;101429.66;;;16.47;100.00
23733;BME280;12047;53.450;-2.286;2023-04-05T13:25:55;101424.78;;;16.42;100.00
23733;BME280;12047;53.450;-2.286;2023-04-05T13:30:55;101426.09;;;16.38;100.00
23733;BME280;12047;53.450;-2.286;2023-04-05T13:35:56;101415.97;;;16.24;100.00
23733;BME280;12047;53.450;-2.286;2023-04-05T13:40:56;101420.19;;;16.26;100.00
23733;BME280;12047;53.450;-2.286;2023-04-05T13:45:57;101411.72;;;16.13;100.00
23733;BME280;12047;53.450;-2.286;2023-04-05T13:50:57;101415.50;;;16.28;100.00
23733;BME280;12047;53.450;-2.286;2023-04-05T13:55:58;101395.13;;;16.36;100.00
23733;BME280;12047;53.450;-2.286;2023-04-05T14:00:58;101385.88;;;16.22;100.00
23733;BME280;12047;53.450;-2.286;2023-04-05T14:05:59;101384.69;;;16.16;100.00
23733;BME280;12047;53.450;-2.286;2023-04-05T14:10:59;101380.78;;;16.37;100.00
23733;BME280;12047;53.450;-2.286;2023-04-05T14:16:00;101381.09;;;16.33;100.00
23733;BME280;12047;53.450;-2.286;2023-04-05T14:21:02;101360.78;;;15.89;100.00
23733;BME280;12047;53.450;-2.286;2023-04-05T14:26:02;101360.25;;;16.11;100.00
23733;BME280;12047;53.450;-2.286;2023-04-05T14:31:03;101348.59;;;16.20;100.00
23733;BME280;12047;53.450;-2.286;2023-04-05T14:36:04;101339.59;;;16.21;100.00
23733;BME280;12047;53.450;-2.286;2023-04-05T14:41:05;101339.34;;;16.41;100.00
23733;BME280;12047;53.450;-2.286;2023-04-05T14:46:05;101330.72;;;16.21;100.00
23733;BME280;12047;53.450;-2.286;2023-04-05T14:51:06;101320.50;;;16.16;100.00
23733;BME280;12047;53.450;-2.286;2023-04-05T14:56:07;101317.03;;;16.24;100.00
23733;BME280;12047;53.450;-2.286;2023-04-05T15:01:11;101311.84;;;16.56;100.00
23733;BME280;12047;53.450;-2.286;2023-04-05T15:06:12;101302.22;;;16.38;100.00
23733;BME280;12047;53.450;-2.286;2023-04-05T15:11:12;101299.53;;;16.29;100.00
23733;BME280;12047;53.450;-2.286;2023-04-05T15:16:13;101292.53;;;16.95;100.00
23733;BME280;12047;53.450;-2.286;2023-04-05T15:21:14;101291.50;;;16.29;100.00
23733;BME280;12047;53.450;-2.286;2023-04-05T15:26:14;101280.19;;;16.10;100.00
23733;BME280;12047;53.450;-2.286;2023-04-05T15:31:15;101276.19;;;16.06;100.00
23733;BME280;12047;53.450;-2.286;2023-04-05T15:36:16;101276.09;;;16.23;100.00
23733;BME280;12047;53.450;-2.286;2023-04-05T15:41:16;101264.75;;;16.80;100.00
23733;BME280;12047;53.450;-2.286;2023-04-05T15:46:17;101270.19;;;16.54;100.00
23733;BME280;12047;53.450;-2.286;2023-04-05T15:51:17;101271.63;;;16.90;100.00
23733;BME280;12047;53.450;-2.286;2023-04-05T15:56:18;101264.91;;;16.86;100.00
23733;BME280;12047;53.450;-2.286;2023-04-05T16:01:22;101254.53;;;16.67;100.00
23733;BME280;12047;53.450;-2.286;2023-04-05T16:11:33;101252.91;;;16.40;100.00
23733;BME280;12047;53.450;-2.286;2023-04-05T16:16:33;101251.78;;;16.51;100.00
23733;BME280;12047;53.450;-2.286;2023-04-05T16:21:34;101251.13;;;16.57;100.00
23733;BME280;12047;53.450;-2.286;2023-04-05T16:26:35;101248.81;;;15.78;100.00
23733;BME280;12047;53.450;-2.286;2023-04-05T16:31:36;101239.88;;;16.45;100.00
23733;BME280;12047;53.450;-2.286;2023-04-05T16:36:37;101234.06;;;17.80;100.00
23733;BME280;12047;53.450;-2.286;2023-04-05T16:41:37;101238.97;;;17.35;100.00
23733;BME280;12047;53.450;-2.286;2023-04-05T16:46:38;101226.63;;;17.26;100.00
23733;BME280;12047;53.450;-2.286;2023-04-05T16:51:39;101217.75;;;17.18;100.00
23733;BME280;12047;53.450;-2.286;2023-04-05T16:56:40;101224.28;;;16.91;100.00
23733;BME280;12047;53.450;-2.286;2023-04-05T17:01:41;101215.63;;;16.30;100.00
23733;BME280;12047;53.450;-2.286;2023-04-05T17:06:41;101221.72;;;16.57;100.00
23733;BME280;12047;53.450;-2.286;2023-04-05T17:11:42;101213.28;;;16.27;100.00
23733;BME280;12047;53.450;-2.286;2023-04-05T17:16:42;101213.44;;;16.34;100.00
23733;BME280;12047;53.450;-2.286;2023-04-05T17:27:42;101191.13;;;16.84;100.00
23733;BME280;12047;53.450;-2.286;2023-04-05T17:32:42;101202.78;;;15.92;100.00
23733;BME280;12047;53.450;-2.286;2023-04-05T17:37:43;101191.56;;;16.39;100.00
23733;BME280;12047;53.450;-2.286;2023-04-05T17:42:46;101195.28;;;16.54;100.00
23733;BME280;12047;53.450;-2.286;2023-04-05T17:47:47;101199.22;;;16.25;100.00
23733;BME280;12047;53.450;-2.286;2023-04-05T17:52:49;101188.91;;;16.63;100.00
23733;BME280;12047;53.450;-2.286;2023-04-05T17:57:54;101188.41;;;16.43;100.00
23733;BME280;12047;53.450;-2.286;2023-04-05T18:02:55;101187.22;;;16.29;100.00
23733;BME280;12047;53.450;-2.286;2023-04-05T18:07:55;101181.66;;;16.23;100.00
23733;BME280;12047;53.450;-2.286;2023-04-05T18:12:56;101171.91;;;16.64;100.00
23733;BME280;12047;53.450;-2.286;2023-04-05T18:17:59;101181.28;;;17.00;100.00
23733;BME280;12047;53.450;-2.286;2023-04-05T18:23:03;101183.78;;;16.86;100.00
23733;BME280;12047;53.450;-2.286;2023-04-05T18:28:14;101191.97;;;16.10;100.00
23733;BME280;12047;53.450;-2.286;2023-04-05T18:33:16;101181.81;;;16.13;100.00
23733;BME280;12047;53.450;-2.286;2023-04-05T18:38:17;101180.69;;;16.32;100.00
23733;BME280;12047;53.450;-2.286;2023-04-05T18:43:22;101173.56;;;20.83;100.00
23733;BME280;12047;53.450;-2.286;2023-04-05T18:48:23;101181.25;;;17.25;100.00
23733;BME280;12047;53.450;-2.286;2023-04-05T18:53:24;101177.56;;;17.26;100.00
23733;BME280;12047;53.450;-2.286;2023-04-05T18:58:25;101180.47;;;16.17;100.00
23733;BME280;12047;53.450;-2.286;2023-04-05T19:03:26;101176.88;;;16.51;100.00
23733;BME280;12047;53.450;-2.286;2023-04-05T19:08:26;101174.09;;;16.02;100.00
23733;BME280;12047;53.450;-2.286;2023-04-05T19:13:27;101172.25;;;16.69;100.00
23733;BME280;12047;53.450;-2.286;2023-04-05T19:18:30;101171.69;;;16.49;100.00
23733;BME280;12047;53.450;-2.286;2023-04-05T19:23:30;101180.69;;;16.32;100.00
23733;BME280;12047;53.450;-2.286;2023-04-05T19:28:34;101172.72;;;16.56;100.00
23733;BME280;12047;53.450;-2.286;2023-04-05T19:33:35;101175.72;;;16.53;100.00
23733;BME280;12047;53.450;-2.286;2023-04-05T19:38:38;101174.53;;;16.48;100.00
23733;BME280;12047;53.450;-2.286;2023-04-05T19:43:43;101172.84;;;16.47;100.00
23733;BME280;12047;53.450;-2.286;2023-04-05T19:48:44;101166.41;;;16.82;100.00
23733;BME280;12047;53.450;-2.286;2023-04-05T19:53:46;101161.84;;;16.50;100.00
23733;BME280;12047;53.450;-2.286;2023-04-05T19:58:49;101163.81;;;16.31;100.00
23733;BME280;12047;53.450;-2.286;2023-04-05T20:03:52;101156.81;;;16.55;100.00
23733;BME280;12047;53.450;-2.286;2023-04-05T20:09:00;101154.47;;;16.60;100.00
23733;BME280;12047;53.450;-2.286;2023-04-05T20:14:01;101156.34;;;15.93;100.00
23733;BME280;12047;53.450;-2.286;2023-04-05T20:19:11;101143.31;;;16.81;100.00
23733;BME280;12047;53.450;-2.286;2023-04-05T20:24:17;101141.31;;;15.92;100.00
23733;BME280;12047;53.450;-2.286;2023-04-05T20:29:26;101137.66;;;16.09;100.00
23733;BME280;12047;53.450;-2.286;2023-04-05T20:34:29;101136.84;;;16.09;100.00
23733;BME280;12047;53.450;-2.286;2023-04-05T20:39:31;101134.25;;;15.75;100.00
23733;BME280;12047;53.450;-2.286;2023-04-05T20:44:50;101122.34;;;16.19;100.00
23733;BME280;12047;53.450;-2.286;2023-04-05T20:49:51;101112.94;;;15.99;100.00
23733;BME280;12047;53.450;-2.286;2023-04-05T20:54:51;101108.97;;;16.19;100.00
23733;BME280;12047;53.450;-2.286;2023-04-05T20:59:52;101110.50;;;16.46;100.00
23733;BME280;12047;53.450;-2.286;2023-04-05T21:04:54;101106.31;;;16.27;100.00
23733;BME280;12047;53.450;-2.286;2023-04-05T21:09:54;101095.97;;;16.57;100.00
23733;BME280;12047;53.450;-2.286;2023-04-05T21:14:55;101091.28;;;16.51;100.00
23733;BME280;12047;53.450;-2.286;2023-04-05T21:19:55;101082.94;;;16.70;100.00
23733;BME280;12047;53.450;-2.286;2023-04-05T21:24:56;101078.41;;;16.54;100.00
23733;BME280;12047;53.450;-2.286;2023-04-05T21:29:57;101076.91;;;16.76;100.00
23733;BME280;12047;53.450;-2.286;2023-04-05T21:34:57;101067.34;;;17.06;100.00
23733;BME280;12047;53.450;-2.286;2023-04-05T21:39:58;101063.19;;;16.79;100.00
23733;BME280;12047;53.450;-2.286;2023-04-05T21:45:01;101060.34;;;16.64;100.00
23733;BME280;12047;53.450;-2.286;2023-04-05T21:50:03;101057.16;;;16.12;100.00
23733;BME280;12047;53.450;-2.286;2023-04-05T21:55:05;101053.34;;;16.47;100.00
23733;BME280;12047;53.450;-2.286;2023-04-05T22:00:06;101046.63;;;16.59;100.00
23733;BME280;12047;53.450;-2.286;2023-04-05T22:05:09;101044.13;;;16.58;100.00
23733;BME280;12047;53.450;-2.286;2023-04-05T22:10:10;101044.44;;;16.95;100.00
23733;BME280;12047;53.450;-2.286;2023-04-05T22:15:11;101037.44;;;16.46;100.00
23733;BME280;12047;53.450;-2.286;2023-04-05T22:20:11;101043.47;;;16.31;100.00
23733;BME280;12047;53.450;-2.286;2023-04-05T22:25:12;101035.09;;;16.51;100.00
23733;BME280;12047;53.450;-2.286;2023-04-05T22:30:13;101031.09;;;16.06;100.00
23733;BME280;12047;53.450;-2.286;2023-04-05T22:35:14;101021.22;;;16.15;100.00
23733;BME280;12047;53.450;-2.286;2023-04-05T22:40:17;101014.03;;;16.80;100.00
23733;BME280;12047;53.450;-2.286;2023-04-05T22:45:17;101010.06;;;16.27;100.00
23733;BME280;12047;53.450;-2.286;2023-04-05T22:50:21;100998.84;;;16.16;100.00
23733;BME280;12047;53.450;-2.286;2023-04-05T22:55:33;100995.19;;;16.25;100.00
23733;BME280;12047;53.450;-2.286;2023-04-05T23:00:36;100989.53;;;16.99;100.00
23733;BME280;12047;53.450;-2.286;2023-04-05T23:05:40;100985.22;;;16.90;100.00
23733;BME280;12047;53.450;-2.286;2023-04-05T23:10:56;100975.34;;;17.30;100.00
23733;BME280;12047;53.450;-2.286;2023-04-05T23:15:56;100971.91;;;16.42;100.00
23733;BME280;12047;53.450;-2.286;2023-04-05T23:26:50;100972.47;;;17.00;100.00
23733;BME280;12047;53.450;-2.286;2023-04-05T23:32:16;100969.50;;;16.87;100.00
23733;BME280;12047;53.450;-2.286;2023-04-05T23:37:20;100957.84;;;16.72;100.00
23733;BME280;12047;53.450;-2.286;2023-04-05T23:42:24;100966.56;;;16.42;100.00
23733;BME280;12047;53.450;-2.286;2023-04-05T23:47:27;100961.94;;;16.99;100.00
23733;BME280;12047;53.450;-2.286;2023-04-05T23:52:37;100958.72;;;16.48;100.00
